Terminal Aerodrome Forecast
Issued by NWS Cleveland, OH

Home | Current Version | Previous Version | Graphics & Text | Print | Product List | Glossary On
Versions: 1 2 3 4 5 6 7 8 9 10 11 12 13 14 15 16 17 18 19 20 21 22 23 24 25
000
FTUS41 KCLE 312300
TAFERI
TAF
KERI 312339Z 0100/0124 36006KT P6SM SCT080
     FM010400 VRB03KT P6SM OVC080
     FM010800 20003KT P6SM BKN040 OVC080
     FM011500 28006KT P6SM SCT040 BKN250=

USA.gov is the U.S. government's official web portal to all federal, state and local government web resources and services.